Time;durP1;ratioP1;P1;durP2;ratioP2;P2;SDS_P1;SDS_P2;PMS_P1;PMS_P2;Temp;Humidity;BMP_temperature;BMP_pressure;BME280_temperature;BME280_humidity;BME280_pressure;Samples;Min_cycle;Max_cycle;Signal;HPM_P1;HPM_P2
2021/06/06 00:01:10;;;;;;;0.10;0.10;;;22.30;92.50;;;;;;6274578;22;19926;-81
2021/06/06 00:03:40;;;;;;;0.10;0.10;;;22.30;92.90;;;;;;6273708;22;20010;-81
2021/06/06 00:06:19;;;;;;;0.10;0.10;;;22.30;93.10;;;;;;6274364;22;20008;-82
2021/06/06 00:08:46;;;;;;;0.10;0.10;;;22.30;92.30;;;;;;6273622;22;20029;-81
2021/06/06 00:11:20;;;;;;;0.10;0.10;;;22.30;92.90;;;;;;6274215;22;20454;-82
2021/06/06 00:13:48;;;;;;;0.10;0.10;;;22.30;92.80;;;;;;6271927;22;20276;-81
2021/06/06 00:16:27;;;;;;;0.00;0.00;;;22.40;92.00;;;;;;6271307;22;20031;-81
2021/06/06 00:18:54;;;;;;;0.10;0.10;;;22.40;91.70;;;;;;6271091;22;20000;-81
2021/06/06 00:21:21;;;;;;;0.10;0.10;;;22.40;92.80;;;;;;6273553;22;20007;-81
2021/06/06 00:23:46;;;;;;;;;;;22.40;91.70;;;;;;6275570;22;20083;-81
2021/06/06 00:26:13;;;;;;;0.10;0.10;;;22.40;90.60;;;;;;6275982;22;19931;-81
2021/06/06 00:28:38;;;;;;;0.40;0.33;;;22.20;90.90;;;;;;6275385;22;19999;-81
2021/06/06 00:31:08;;;;;;;0.35;0.35;;;22.20;91.00;;;;;;6275841;22;20019;-81
2021/06/06 00:33:35;;;;;;;1.27;0.68;;;22.30;91.20;;;;;;6275679;22;20016;-81
2021/06/06 00:36:00;;;;;;;;;;;22.20;91.40;;;;;;6275045;22;19999;-81
2021/06/06 00:38:26;;;;;;;0.38;0.38;;;22.10;91.00;;;;;;6275817;22;19899;-81
2021/06/06 00:40:52;;;;;;;0.55;0.55;;;22.10;91.90;;;;;;6274156;22;20035;-81
2021/06/06 00:43:19;;;;;;;0.60;0.60;;;22.10;92.00;;;;;;6274081;22;20094;-81
2021/06/06 00:45:45;;;;;;;;;;;22.10;92.70;;;;;;6275108;22;20000;-81
2021/06/06 00:48:11;;;;;;;0.10;0.10;;;22.00;92.80;;;;;;6275273;22;19918;-81
2021/06/06 00:50:43;;;;;;;0.30;0.30;;;22.00;93.20;;;;;;6276137;22;19995;-81
2021/06/06 00:53:40;;;;;;;0.10;0.10;;;22.00;92.90;;;;;;6275148;22;20015;-81
2021/06/06 00:56:10;;;;;;;2.45;1.70;;;22.00;93.30;;;;;;6273383;22;20423;-80
2021/06/06 00:58:36;;;;;;;0.57;0.57;;;22.00;93.20;;;;;;6275567;22;20365;-81
2021/06/06 01:01:03;;;;;;;0.10;0.10;;;22.00;93.00;;;;;;6275845;22;20000;-80
2021/06/06 01:03:29;;;;;;;0.10;0.10;;;22.00;93.00;;;;;;6273930;22;20008;-82
2021/06/06 01:06:11;;;;;;;0.10;0.10;;;22.00;93.90;;;;;;6274350;22;20049;-81
2021/06/06 01:08:38;;;;;;;0.70;0.65;;;22.10;93.20;;;;;;6275458;22;19996;-82
2021/06/06 01:11:08;;;;;;;0.03;0.03;;;22.10;93.90;;;;;;6274126;22;20003;-81
2021/06/06 01:13:42;;;;;;;0.10;0.10;;;22.10;93.70;;;;;;6275130;22;20081;-82
2021/06/06 01:16:23;;;;;;;0.10;0.10;;;22.10;93.90;;;;;;6275728;22;20002;-82
2021/06/06 01:18:51;;;;;;;0.10;0.10;;;22.20;94.30;;;;;;6275265;22;20035;-81
2021/06/06 01:21:44;;;;;;;0.10;0.10;;;22.20;94.30;;;;;;6275565;22;19999;-81
2021/06/06 01:24:31;;;;;;;0.10;0.10;;;22.20;94.50;;;;;;6273630;22;19996;-81
2021/06/06 01:27:05;;;;;;;0.10;0.10;;;22.30;94.20;;;;;;6273895;22;20007;-81
2021/06/06 01:29:45;;;;;;;0.10;0.10;;;22.20;94.30;;;;;;6275145;22;20000;-80
2021/06/06 01:32:23;;;;;;;0.10;0.10;;;22.10;95.10;;;;;;6275509;22;20016;-81
2021/06/06 01:35:02;;;;;;;0.10;0.10;;;22.20;95.40;;;;;;6273657;22;20043;-80
2021/06/06 01:37:29;;;;;;;0.10;0.10;;;22.20;95.40;;;;;;6275079;22;19999;-81
2021/06/06 01:40:08;;;;;;;0.10;0.10;;;22.10;94.40;;;;;;6275435;22;20008;-81
2021/06/06 01:42:39;;;;;;;0.10;0.10;;;22.00;94.00;;;;;;6273119;22;19999;-81
2021/06/06 01:45:13;;;;;;;0.10;0.10;;;22.00;96.00;;;;;;6274287;22;20004;-80
2021/06/06 01:47:41;;;;;;;0.10;0.10;;;22.00;97.00;;;;;;6274804;22;20002;-80
2021/06/06 01:50:18;;;;;;;0.10;0.10;;;22.00;99.00;;;;;;6273878;22;20004;-80
2021/06/06 01:52:44;;;;;;;0.10;0.10;;;21.70;99.50;;;;;;6274523;22;19996;-80
2021/06/06 01:55:14;;;;;;;0.10;0.10;;;21.60;99.90;;;;;;6275365;22;20012;-80
2021/06/06 01:57:42;;;;;;;0.35;0.35;;;21.40;99.90;;;;;;6274610;22;20074;-79
2021/06/06 02:00:15;;;;;;;1.02;0.55;;;21.30;99.90;;;;;;6275714;22;19999;-80
2021/06/06 02:02:41;;;;;;;2.67;2.03;;;20.90;99.90;;;;;;6273185;22;20339;-80
2021/06/06 02:05:14;;;;;;;6.18;4.57;;;20.70;99.90;;;;;;6273481;22;19999;-80
2021/06/06 02:07:43;;;;;;;0.30;0.30;;;20.50;99.90;;;;;;6274903;22;20026;-80
2021/06/06 02:10:31;;;;;;;0.10;0.10;;;20.30;99.90;;;;;;6275522;22;19996;-79
2021/06/06 02:13:17;;;;;;;0.10;0.10;;;20.30;99.90;;;;;;6274514;22;19999;-79
2021/06/06 02:15:43;;;;;;;3.33;3.10;;;20.50;99.90;;;;;;6273535;22;20007;-80
2021/06/06 02:18:10;;;;;;;0.17;0.17;;;20.40;99.90;;;;;;6274352;22;20062;-79
2021/06/06 02:20:39;;;;;;;0.40;0.40;;;20.40;99.90;;;;;;6273273;22;20466;-80
2021/06/06 02:23:05;;;;;;;0.10;0.10;;;20.30;99.90;;;;;;6274678;22;19996;-79
2021/06/06 02:25:32;;;;;;;0.00;0.00;;;20.30;99.90;;;;;;6275827;22;20038;-80
2021/06/06 02:28:09;;;;;;;0.20;0.20;;;20.20;99.90;;;;;;6274780;22;19992;-79
2021/06/06 02:30:58;;;;;;;0.10;0.10;;;20.20;99.90;;;;;;6274826;22;20011;-80
2021/06/06 02:33:36;;;;;;;0.10;0.10;;;20.10;99.90;;;;;;6272515;22;20580;-80
2021/06/06 02:36:05;;;;;;;0.10;0.10;;;20.20;99.90;;;;;;6273300;22;20023;-79
2021/06/06 02:38:42;;;;;;;0.10;0.10;;;20.20;99.90;;;;;;6274443;22;20004;-79
2021/06/06 02:41:13;;;;;;;0.10;0.10;;;20.30;99.90;;;;;;6274865;22;20027;-80
2021/06/06 02:43:47;;;;;;;0.10;0.10;;;20.40;99.90;;;;;;6273051;22;19999;-80
2021/06/06 02:46:14;;;;;;;0.10;0.10;;;20.40;99.90;;;;;;6275487;22;19999;-80
2021/06/06 02:48:44;;;;;;;0.10;0.10;;;20.40;99.90;;;;;;6274892;22;20003;-79
2021/06/06 02:51:13;;;;;;;0.10;0.10;;;20.40;99.90;;;;;;6275516;22;19996;-80
2021/06/06 02:54:11;;;;;;;0.10;0.10;;;20.40;99.90;;;;;;6274410;22;20091;-80
2021/06/06 02:56:43;;;;;;;0.15;0.15;;;20.40;99.90;;;;;;6270649;22;20489;-79
2021/06/06 02:59:14;;;;;;;0.10;0.10;;;20.40;99.90;;;;;;6274708;22;20025;-80
2021/06/06 03:01:49;;;;;;;0.15;0.15;;;20.40;99.90;;;;;;6275426;22;20004;-80
2021/06/06 03:04:19;;;;;;;0.10;0.10;;;20.30;99.90;;;;;;6273322;22;20004;-79
2021/06/06 03:07:10;;;;;;;0.10;0.10;;;20.30;99.90;;;;;;6275292;22;20000;-80
2021/06/06 03:09:36;;;;;;;0.28;0.28;;;20.40;99.90;;;;;;6231525;22;20007;-80
2021/06/06 03:12:09;;;;;;;0.10;0.10;;;20.30;99.90;;;;;;6272625;22;20000;-80
2021/06/06 03:14:38;;;;;;;0.10;0.10;;;20.40;99.90;;;;;;6274177;22;20023;-79
2021/06/06 03:17:14;;;;;;;0.13;0.13;;;20.40;99.90;;;;;;6272511;22;20423;-80
2021/06/06 03:19:43;;;;;;;0.10;0.10;;;20.40;99.90;;;;;;6274197;22;20462;-80
2021/06/06 03:22:14;;;;;;;0.10;0.10;;;20.40;99.90;;;;;;6274260;22;20007;-80
2021/06/06 03:24:48;;;;;;;0.05;0.05;;;20.40;99.90;;;;;;6275164;22;20078;-80
2021/06/06 03:27:15;;;;;;;0.10;0.10;;;20.40;99.90;;;;;;6272889;22;20007;-79
2021/06/06 03:29:53;;;;;;;;;;;20.40;99.90;;;;;;6275397;22;19999;-79
2021/06/06 03:32:24;;;;;;;0.05;0.05;;;20.50;99.90;;;;;;6274097;22;19907;-79
2021/06/06 03:34:49;;;;;;;0.10;0.10;;;20.40;99.90;;;;;;6272437;22;20438;-79
2021/06/06 03:37:17;;;;;;;0.47;0.47;;;20.40;99.90;;;;;;6272390;22;20072;-79
2021/06/06 03:39:42;;;;;;;;;;;20.40;99.90;;;;;;6274531;22;20000;-79
2021/06/06 03:42:08;;;;;;;0.32;0.32;;;20.30;99.90;;;;;;6274092;22;19918;-79
2021/06/06 03:44:34;;;;;;;0.43;0.43;;;20.40;99.90;;;;;;6274028;22;19996;-79
2021/06/06 03:46:59;;;;;;;0.28;0.28;;;20.40;99.90;;;;;;6273728;22;20330;-79
2021/06/06 03:49:27;;;;;;;0.00;0.00;;;20.30;99.90;;;;;;6273815;22;20050;-79
2021/06/06 03:51:52;;;;;;;0.10;0.10;;;20.30;99.90;;;;;;6273911;22;19999;-79
2021/06/06 03:54:18;;;;;;;0.10;0.10;;;20.40;99.90;;;;;;6271707;22;20008;-80
2021/06/06 03:56:47;;;;;;;0.10;0.10;;;20.20;99.90;;;;;;6274097;22;20435;-80
2021/06/06 03:59:13;;;;;;;0.95;0.95;;;20.20;99.90;;;;;;6273713;22;20010;-81
2021/06/06 04:01:41;;;;;;;0.10;0.10;;;20.10;99.90;;;;;;6274569;22;19996;-79
2021/06/06 04:04:06;;;;;;;;;;;20.20;99.90;;;;;;6273101;22;20004;-80
2021/06/06 04:06:32;;;;;;;0.10;0.10;;;20.30;99.90;;;;;;6273431;22;19926;-80
2021/06/06 04:08:58;;;;;;;0.10;0.10;;;20.20;99.90;;;;;;6274143;22;20004;-80
2021/06/06 04:11:24;;;;;;;0.10;0.10;;;20.30;99.90;;;;;;6274264;22;20006;-80
2021/06/06 04:13:51;;;;;;;0.10;0.10;;;20.30;99.90;;;;;;6271848;22;20129;-79
2021/06/06 04:16:18;;;;;;;0.10;0.10;;;20.30;99.90;;;;;;6273968;22;20057;-79
2021/06/06 04:18:44;;;;;;;0.20;0.20;;;20.30;99.90;;;;;;6271926;22;20057;-80
2021/06/06 04:21:17;;;;;;;0.10;0.10;;;20.30;99.90;;;;;;6272478;22;20000;-80
2021/06/06 04:23:43;;;;;;;0.10;0.10;;;20.40;99.90;;;;;;6272163;22;20015;-80
2021/06/06 04:26:11;;;;;;;0.10;0.10;;;20.40;99.90;;;;;;6274337;22;20369;-80
2021/06/06 04:28:37;;;;;;;0.30;0.30;;;20.40;99.90;;;;;;6272427;22;20004;-80
2021/06/06 04:31:04;;;;;;;0.10;0.10;;;20.40;99.90;;;;;;6274740;22;20090;-80
2021/06/06 04:33:30;;;;;;;0.10;0.10;;;20.40;99.90;;;;;;6274238;22;20008;-81
2021/06/06 04:35:55;;;;;;;0.20;0.20;;;20.50;99.90;;;;;;6274652;22;20011;-81
2021/06/06 04:38:24;;;;;;;0.10;0.10;;;20.70;99.90;;;;;;6274207;22;20026;-80
2021/06/06 04:40:51;;;;;;;0.20;0.20;;;20.80;99.90;;;;;;6274587;22;20000;-80
2021/06/06 04:43:17;;;;;;;0.10;0.10;;;21.00;99.90;;;;;;6272753;22;20003;-80
2021/06/06 04:45:43;;;;;;;0.20;0.20;;;21.10;99.90;;;;;;6274715;22;20354;-80
2021/06/06 04:48:36;;;;;;;4.28;1.40;;;21.30;99.90;;;;;;6273940;22;20057;-81
2021/06/06 04:51:07;;;;;;;0.10;0.10;;;21.40;99.90;;;;;;6264689;22;20082;-80
2021/06/06 04:53:33;;;;;;;0.10;0.10;;;21.40;99.90;;;;;;6273324;22;20030;-80
2021/06/06 04:56:00;;;;;;;0.10;0.10;;;21.40;99.90;;;;;;6274041;22;20006;-81
2021/06/06 04:58:29;;;;;;;0.05;0.05;;;21.40;99.90;;;;;;6273036;22;20006;-81
2021/06/06 05:00:55;;;;;;;0.10;0.10;;;21.40;99.90;;;;;;6272205;22;20006;-80
2021/06/06 05:03:21;;;;;;;0.10;0.10;;;21.40;99.90;;;;;;6273130;22;20003;-80
2021/06/06 05:05:47;;;;;;;0.10;0.10;;;21.30;99.90;;;;;;6273349;22;19999;-81
2021/06/06 05:08:16;;;;;;;0.10;0.10;;;21.30;99.90;;;;;;6275318;22;20026;-80
2021/06/06 05:10:44;;;;;;;0.10;0.10;;;21.30;99.90;;;;;;6275881;22;19996;-81
2021/06/06 05:13:12;;;;;;;0.10;0.10;;;21.30;99.90;;;;;;6274950;22;20022;-80
2021/06/06 05:15:37;;;;;;;;;;;21.20;99.90;;;;;;6276176;22;20478;-80
2021/06/06 05:18:04;;;;;;;0.10;0.10;;;21.10;99.90;;;;;;6273286;22;19906;-80
2021/06/06 05:20:42;;;;;;;0.10;0.10;;;21.10;99.90;;;;;;6275817;22;20000;-79
2021/06/06 05:23:09;;;;;;;0.10;0.10;;;21.10;99.90;;;;;;6274987;22;20003;-81
2021/06/06 05:25:39;;;;;;;0.10;0.10;;;20.90;99.90;;;;;;6275432;22;20007;-80
2021/06/06 05:28:06;;;;;;;0.10;0.10;;;21.00;99.90;;;;;;6275184;22;20023;-81
2021/06/06 05:30:34;;;;;;;0.40;0.40;;;21.00;99.90;;;;;;6275250;22;20023;-81
2021/06/06 05:33:00;;;;;;;0.10;0.10;;;20.90;99.90;;;;;;6275016;22;20007;-80
2021/06/06 05:35:28;;;;;;;0.10;0.10;;;20.80;99.90;;;;;;6275547;22;20011;-79
2021/06/06 05:37:54;;;;;;;0.10;0.10;;;20.70;99.90;;;;;;6275051;22;20000;-81
2021/06/06 05:40:22;;;;;;;0.10;0.10;;;20.70;99.90;;;;;;6275643;22;20000;-81
2021/06/06 05:42:48;;;;;;;0.10;0.10;;;20.80;99.90;;;;;;6274942;22;20010;-81
2021/06/06 05:45:15;;;;;;;11.23;10.35;;;20.80;99.90;;;;;;6275351;22;20082;-82
2021/06/06 05:47:41;;;;;;;0.10;0.10;;;20.80;99.90;;;;;;6275214;22;20457;-82
2021/06/06 05:50:09;;;;;;;0.25;0.22;;;20.80;99.90;;;;;;6275056;22;20000;-81
2021/06/06 05:52:35;;;;;;;0.10;0.10;;;20.80;99.90;;;;;;6274614;22;20010;-82
2021/06/06 05:55:00;;;;;;;0.00;0.00;;;20.80;99.90;;;;;;6275565;22;20012;-81
2021/06/06 05:57:27;;;;;;;0.10;0.10;;;20.80;99.90;;;;;;6273085;22;20490;-82
2021/06/06 05:59:53;;;;;;;0.10;0.10;;;20.90;99.90;;;;;;6273729;22;20343;-83
2021/06/06 06:02:19;;;;;;;0.10;0.10;;;20.90;99.90;;;;;;6273409;22;20010;-80
2021/06/06 06:04:44;;;;;;;0.10;0.10;;;20.80;99.90;;;;;;6273589;22;20037;-81
2021/06/06 06:07:10;;;;;;;0.10;0.10;;;20.80;99.90;;;;;;6273307;22;20012;-83
2021/06/06 06:09:36;;;;;;;0.10;0.10;;;20.80;99.90;;;;;;6274912;22;20004;-82
2021/06/06 06:12:02;;;;;;;0.10;0.10;;;20.80;99.90;;;;;;6273695;22;20010;-81
2021/06/06 06:14:28;;;;;;;0.10;0.10;;;20.80;99.90;;;;;;6274770;22;20015;-80
2021/06/06 06:16:54;;;;;;;0.10;0.10;;;20.90;99.90;;;;;;6274413;22;20591;-80
2021/06/06 06:19:19;;;;;;;0.10;0.10;;;20.90;99.90;;;;;;6274726;22;20000;-81
2021/06/06 06:21:45;;;;;;;0.00;0.00;;;20.80;99.90;;;;;;6275073;22;20334;-81
2021/06/06 06:24:12;;;;;;;0.13;0.13;;;20.70;99.90;;;;;;6273448;22;20083;-80
2021/06/06 06:26:38;;;;;;;1.98;1.75;;;20.50;99.90;;;;;;6267387;22;20007;-79
2021/06/06 06:29:05;;;;;;;5.68;2.45;;;20.20;99.90;;;;;;6268941;22;20569;-78
2021/06/06 06:31:31;;;;;;;6.55;3.47;;;19.50;99.90;;;;;;6269879;22;20075;-79
2021/06/06 06:33:59;;;;;;;46.13;2.25;;;19.00;99.90;;;;;;6268567;22;20024;-79
2021/06/06 06:36:25;;;;;;;5.57;1.23;;;18.90;99.90;;;;;;6272166;22;20050;-81
2021/06/06 06:38:52;;;;;;;1.88;1.27;;;18.80;99.90;;;;;;6270501;22;20378;-80
2021/06/06 06:41:24;;;;;;;1.33;1.25;;;18.80;99.90;;;;;;6272647;22;20000;-80
2021/06/06 06:43:50;;;;;;;1.10;1.10;;;18.80;99.90;;;;;;6274384;22;19999;-81
2021/06/06 06:46:16;;;;;;;2.10;1.63;;;18.70;99.90;;;;;;6274195;22;20710;-80
2021/06/06 06:48:42;;;;;;;10.73;0.30;;;18.60;99.90;;;;;;6270381;22;20066;-79
2021/06/06 06:51:09;;;;;;;0.00;0.00;;;18.40;99.90;;;;;;6270927;22;20057;-80
2021/06/06 06:53:35;;;;;;;0.00;0.00;;;18.20;99.90;;;;;;6271011;22;20022;-81
2021/06/06 06:56:00;;;;;;;0.00;0.00;;;18.00;99.90;;;;;;6273184;22;20544;-80
2021/06/06 06:58:26;;;;;;;0.00;0.00;;;17.90;99.90;;;;;;6272236;22;20057;-81
2021/06/06 07:00:54;;;;;;;0.00;0.00;;;17.80;99.90;;;;;;6271292;22;19992;-81
2021/06/06 07:03:24;;;;;;;0.17;0.00;;;17.60;99.90;;;;;;6271354;22;20055;-77
2021/06/06 07:05:51;;;;;;;5.80;5.40;;;17.80;99.90;;;;;;6271716;22;20004;-78
2021/06/06 07:08:21;;;;;;;0.00;0.00;;;17.90;99.90;;;;;;6272959;22;20087;-79
2021/06/06 07:10:47;;;;;;;0.00;0.00;;;17.80;99.90;;;;;;6273221;22;20074;-77
2021/06/06 07:13:13;;;;;;;0.00;0.00;;;17.80;99.90;;;;;;6272628;22;20508;-79
2021/06/06 07:15:39;;;;;;;0.00;0.00;;;17.70;99.90;;;;;;6271754;22;20089;-77
2021/06/06 07:18:08;;;;;;;1999.90;999.90;;;17.70;99.90;;;;;;6271480;22;20354;-79
2021/06/06 07:20:36;;;;;;;1999.90;999.90;;;17.90;99.90;;;;;;6272935;22;20343;-78
2021/06/06 07:23:04;;;;;;;142.68;136.45;;;18.30;99.90;;;;;;6272923;22;20003;-78
2021/06/06 07:25:30;;;;;;;0.38;0.17;;;18.50;99.90;;;;;;6271895;22;20075;-77
2021/06/06 07:27:56;;;;;;;0.00;0.00;;;18.80;99.90;;;;;;6271912;22;20023;-77
2021/06/06 07:30:31;;;;;;;0.03;0.00;;;19.00;99.90;;;;;;6272425;22;20011;-74
2021/06/06 07:32:59;;;;;;;0.00;0.00;;;19.10;99.90;;;;;;6273084;22;20061;-76
2021/06/06 07:35:27;;;;;;;0.00;0.00;;;19.20;99.90;;;;;;6272827;22;20172;-76
2021/06/06 07:37:53;;;;;;;0.00;0.00;;;19.10;99.90;;;;;;6272701;22;20127;-75
2021/06/06 07:40:20;;;;;;;0.00;0.00;;;19.00;99.90;;;;;;6272701;22;19995;-76
2021/06/06 07:42:45;;;;;;;0.00;0.00;;;19.00;99.90;;;;;;6270558;22;20007;-75
2021/06/06 07:45:14;;;;;;;0.00;0.00;;;19.10;99.90;;;;;;6272950;22;20054;-75
2021/06/06 07:47:42;;;;;;;0.00;0.00;;;19.10;99.90;;;;;;6272249;22;20007;-74
2021/06/06 07:50:10;;;;;;;0.00;0.00;;;19.20;99.90;;;;;;6273376;22;20000;-75
2021/06/06 07:52:36;;;;;;;0.00;0.00;;;18.90;99.90;;;;;;6272225;22;20571;-76
2021/06/06 07:55:07;;;;;;;0.00;0.00;;;18.80;99.90;;;;;;6272905;22;20003;-76
2021/06/06 07:57:34;;;;;;;0.00;0.00;;;18.90;99.90;;;;;;6272673;22;20000;-75
2021/06/06 07:59:59;;;;;;;0.00;0.00;;;18.90;99.90;;;;;;6271412;22;20003;-75
2021/06/06 08:02:25;;;;;;;0.00;0.00;;;18.80;99.90;;;;;;6257972;22;20075;-74
2021/06/06 08:04:51;;;;;;;0.52;0.52;;;19.00;99.90;;;;;;6270461;22;20000;-75
2021/06/06 08:07:17;;;;;;;0.00;0.00;;;19.20;99.90;;;;;;6272242;22;20004;-74
2021/06/06 08:09:42;;;;;;;0.00;0.00;;;19.40;99.90;;;;;;6271324;22;20065;-74
2021/06/06 08:12:09;;;;;;;0.00;0.00;;;18.90;99.90;;;;;;6271914;22;20605;-75
2021/06/06 08:14:34;;;;;;;0.00;0.00;;;18.30;99.90;;;;;;6273499;22;20560;-75
2021/06/06 08:17:00;;;;;;;0.00;0.00;;;18.30;99.90;;;;;;6271675;22;20023;-74
2021/06/06 08:19:26;;;;;;;0.00;0.00;;;18.30;99.90;;;;;;6271374;22;20030;-73
2021/06/06 08:21:52;;;;;;;0.00;0.00;;;18.40;99.90;;;;;;6272336;22;19996;-74
2021/06/06 08:24:17;;;;;;;0.00;0.00;;;18.80;99.90;;;;;;6273009;22;19996;-75
2021/06/06 08:26:44;;;;;;;0.00;0.00;;;19.20;99.90;;;;;;6272693;22;20010;-74
2021/06/06 08:29:11;;;;;;;0.00;0.00;;;18.90;99.90;;;;;;6270995;22;20447;-74
2021/06/06 08:31:39;;;;;;;1.02;0.30;;;18.50;99.90;;;;;;6272158;22;20012;-74
2021/06/06 08:34:07;;;;;;;0.00;0.00;;;18.80;99.90;;;;;;6272450;22;20011;-75
2021/06/06 08:36:40;;;;;;;0.00;0.00;;;19.10;99.90;;;;;;6272439;22;20000;-75
2021/06/06 08:39:15;;;;;;;1.15;0.43;;;19.20;99.90;;;;;;6270746;22;20465;-76
2021/06/06 08:41:41;;;;;;;0.00;0.00;;;19.60;99.90;;;;;;6275245;22;20416;-79
2021/06/06 08:44:15;;;;;;;0.00;0.00;;;20.00;99.90;;;;;;6272227;22;20061;-81
2021/06/06 08:47:09;;;;;;;0.00;0.00;;;20.10;99.90;;;;;;6274083;22;20512;-76
2021/06/06 08:49:44;;;;;;;0.00;0.00;;;20.50;99.90;;;;;;6270618;22;19999;-77
2021/06/06 08:52:22;;;;;;;0.00;0.00;;;20.00;99.90;;;;;;6274335;22;20011;-77
2021/06/06 08:54:50;;;;;;;0.00;0.00;;;20.20;99.90;;;;;;6272823;22;20015;-76
2021/06/06 08:57:35;;;;;;;0.00;0.00;;;20.40;99.90;;;;;;6273876;22;20034;-77
2021/06/06 09:00:04;;;;;;;0.00;0.00;;;20.80;99.90;;;;;;6275251;22;20000;-84
2021/06/06 09:02:47;;;;;;;0.00;0.00;;;21.40;99.90;;;;;;6273562;22;20027;-79
2021/06/06 09:05:26;;;;;;;0.00;0.00;;;21.60;99.90;;;;;;6275463;22;20000;-83
